sensor_id;sensor_type;location;lat;lon;timestamp;pressure;altitude;pressure_sealevel;temperature;humidity
2178;BME280;1095;50.992;6.798;2023-08-12T00:00:59;101140.63;;;22.00;100.00
2178;BME280;1095;50.992;6.798;2023-08-12T00:03:25;101135.63;;;22.10;100.00
2178;BME280;1095;50.992;6.798;2023-08-12T00:05:54;101143.19;;;22.13;100.00
2178;BME280;1095;50.992;6.798;2023-08-12T00:08:21;101143.97;;;22.21;100.00
2178;BME280;1095;50.992;6.798;2023-08-12T00:10:48;101142.16;;;22.14;100.00
2178;BME280;1095;50.992;6.798;2023-08-12T00:13:15;101153.22;;;22.18;100.00
2178;BME280;1095;50.992;6.798;2023-08-12T00:15:43;101152.81;;;22.14;100.00
2178;BME280;1095;50.992;6.798;2023-08-12T00:18:09;101144.66;;;22.09;100.00
2178;BME280;1095;50.992;6.798;2023-08-12T00:20:37;101144.06;;;22.07;100.00
2178;BME280;1095;50.992;6.798;2023-08-12T00:23:06;101153.84;;;22.13;100.00
2178;BME280;1095;50.992;6.798;2023-08-12T00:25:32;101151.41;;;22.12;100.00
2178;BME280;1095;50.992;6.798;2023-08-12T00:27:59;101134.31;;;21.95;100.00
2178;BME280;1095;50.992;6.798;2023-08-12T00:30:26;101121.44;;;21.67;100.00
2178;BME280;1095;50.992;6.798;2023-08-12T00:32:52;101116.44;;;21.52;100.00
2178;BME280;1095;50.992;6.798;2023-08-12T00:35:23;101101.34;;;21.39;100.00
2178;BME280;1095;50.992;6.798;2023-08-12T00:38:08;101108.31;;;21.40;100.00
2178;BME280;1095;50.992;6.798;2023-08-12T00:44:24;101106.78;;;21.26;100.00
2178;BME280;1095;50.992;6.798;2023-08-12T00:47:30;101091.41;;;21.28;100.00
2178;BME280;1095;50.992;6.798;2023-08-12T00:50:44;101093.84;;;21.30;100.00
2178;BME280;1095;50.992;6.798;2023-08-12T00:53:25;101102.72;;;21.17;100.00
2178;BME280;1095;50.992;6.798;2023-08-12T00:56:07;101089.91;;;21.01;100.00
2178;BME280;1095;50.992;6.798;2023-08-12T00:58:51;101109.88;;;21.16;100.00
2178;BME280;1095;50.992;6.798;2023-08-12T01:02:18;101088.53;;;20.92;100.00
2178;BME280;1095;50.992;6.798;2023-08-12T01:05:03;101105.63;;;21.09;100.00
2178;BME280;1095;50.992;6.798;2023-08-12T01:07:37;101079.13;;;20.89;100.00
2178;BME280;1095;50.992;6.798;2023-08-12T01:10:10;101085.59;;;21.06;100.00
2178;BME280;1095;50.992;6.798;2023-08-12T01:12:47;101085.19;;;21.03;100.00
2178;BME280;1095;50.992;6.798;2023-08-12T01:15:17;101074.38;;;20.98;100.00
2178;BME280;1095;50.992;6.798;2023-08-12T01:17:47;101083.91;;;21.12;100.00
2178;BME280;1095;50.992;6.798;2023-08-12T01:20:17;101080.22;;;21.13;100.00
2178;BME280;1095;50.992;6.798;2023-08-12T01:22:52;101073.06;;;21.13;100.00
2178;BME280;1095;50.992;6.798;2023-08-12T01:25:23;101070.41;;;21.13;100.00
2178;BME280;1095;50.992;6.798;2023-08-12T01:27:50;101074.31;;;21.11;100.00
2178;BME280;1095;50.992;6.798;2023-08-12T01:30:17;101065.97;;;21.01;100.00
2178;BME280;1095;50.992;6.798;2023-08-12T01:32:51;101071.22;;;21.14;100.00
2178;BME280;1095;50.992;6.798;2023-08-12T01:35:24;101070.28;;;21.33;100.00
2178;BME280;1095;50.992;6.798;2023-08-12T01:37:53;101070.44;;;21.38;100.00
2178;BME280;1095;50.992;6.798;2023-08-12T01:40:21;101063.66;;;21.42;100.00
2178;BME280;1095;50.992;6.798;2023-08-12T01:42:50;101063.66;;;21.42;100.00
2178;BME280;1095;50.992;6.798;2023-08-12T01:45:18;101060.00;;;21.37;100.00
2178;BME280;1095;50.992;6.798;2023-08-12T01:47:45;101056.75;;;21.35;100.00
2178;BME280;1095;50.992;6.798;2023-08-12T01:50:13;101064.13;;;21.33;100.00
2178;BME280;1095;50.992;6.798;2023-08-12T01:52:40;101054.94;;;21.29;100.00
2178;BME280;1095;50.992;6.798;2023-08-12T01:55:08;101061.84;;;21.36;100.00
2178;BME280;1095;50.992;6.798;2023-08-12T01:57:34;101059.78;;;21.38;100.00
2178;BME280;1095;50.992;6.798;2023-08-12T02:00:03;101063.50;;;21.37;100.00
2178;BME280;1095;50.992;6.798;2023-08-12T02:02:30;101056.38;;;21.31;100.00
2178;BME280;1095;50.992;6.798;2023-08-12T02:04:57;101053.69;;;21.31;100.00
2178;BME280;1095;50.992;6.798;2023-08-12T02:07:23;101050.19;;;21.06;100.00
2178;BME280;1095;50.992;6.798;2023-08-12T02:09:50;101056.53;;;21.05;100.00
2178;BME280;1095;50.992;6.798;2023-08-12T02:12:19;101048.25;;;21.19;100.00
2178;BME280;1095;50.992;6.798;2023-08-12T02:14:47;101054.38;;;21.20;100.00
2178;BME280;1095;50.992;6.798;2023-08-12T02:17:26;101038.41;;;21.20;100.00
2178;BME280;1095;50.992;6.798;2023-08-12T02:20:01;101045.41;;;21.21;100.00
2178;BME280;1095;50.992;6.798;2023-08-12T02:22:29;101031.13;;;21.09;100.00
2178;BME280;1095;50.992;6.798;2023-08-12T02:24:56;101052.34;;;21.22;100.00
2178;BME280;1095;50.992;6.798;2023-08-12T02:27:23;101043.56;;;21.15;100.00
2178;BME280;1095;50.992;6.798;2023-08-12T02:29:52;101027.88;;;21.07;100.00
2178;BME280;1095;50.992;6.798;2023-08-12T02:32:20;101045.41;;;21.14;100.00
2178;BME280;1095;50.992;6.798;2023-08-12T02:34:47;101050.56;;;21.09;100.00
2178;BME280;1095;50.992;6.798;2023-08-12T02:37:14;101051.56;;;21.15;100.00
2178;BME280;1095;50.992;6.798;2023-08-12T02:39:40;101039.66;;;21.17;100.00
2178;BME280;1095;50.992;6.798;2023-08-12T02:42:07;101048.28;;;21.13;100.00
2178;BME280;1095;50.992;6.798;2023-08-12T02:44:33;101046.66;;;21.12;100.00
2178;BME280;1095;50.992;6.798;2023-08-12T02:47:00;101044.78;;;21.19;100.00
2178;BME280;1095;50.992;6.798;2023-08-12T02:49:28;101047.84;;;21.23;100.00
2178;BME280;1095;50.992;6.798;2023-08-12T02:51:55;101036.38;;;21.22;100.00
2178;BME280;1095;50.992;6.798;2023-08-12T02:54:21;101037.41;;;21.21;100.00
2178;BME280;1095;50.992;6.798;2023-08-12T02:56:49;101033.72;;;21.22;100.00
2178;BME280;1095;50.992;6.798;2023-08-12T02:59:16;101033.53;;;21.17;100.00
2178;BME280;1095;50.992;6.798;2023-08-12T03:01:43;101028.41;;;21.15;100.00
2178;BME280;1095;50.992;6.798;2023-08-12T03:04:10;101021.34;;;21.03;100.00
2178;BME280;1095;50.992;6.798;2023-08-12T03:06:38;101019.75;;;20.95;100.00
2178;BME280;1095;50.992;6.798;2023-08-12T03:09:05;101009.56;;;20.85;100.00
2178;BME280;1095;50.992;6.798;2023-08-12T03:11:32;101003.50;;;20.78;100.00
2178;BME280;1095;50.992;6.798;2023-08-12T03:13:59;101007.41;;;20.76;100.00
2178;BME280;1095;50.992;6.798;2023-08-12T03:16:26;101006.38;;;20.77;100.00
2178;BME280;1095;50.992;6.798;2023-08-12T03:18:55;100995.56;;;20.72;100.00
2178;BME280;1095;50.992;6.798;2023-08-12T03:21:23;101005.81;;;20.68;100.00
2178;BME280;1095;50.992;6.798;2023-08-12T03:24:03;100999.50;;;20.63;100.00
2178;BME280;1095;50.992;6.798;2023-08-12T03:33:55;100991.72;;;20.61;100.00
2178;BME280;1095;50.992;6.798;2023-08-12T04:06:10;100950.63;;;20.12;100.00
2178;BME280;1095;50.992;6.798;2023-08-12T04:08:54;100943.28;;;20.14;100.00
2178;BME280;1095;50.992;6.798;2023-08-12T04:11:27;100943.13;;;20.03;100.00
2178;BME280;1095;50.992;6.798;2023-08-12T04:13:59;100950.66;;;20.06;100.00
2178;BME280;1095;50.992;6.798;2023-08-12T04:16:29;100950.63;;;20.12;100.00
2178;BME280;1095;50.992;6.798;2023-08-12T04:19:19;100953.47;;;20.17;100.00
2178;BME280;1095;50.992;6.798;2023-08-12T04:24:50;100957.75;;;20.25;100.00
2178;BME280;1095;50.992;6.798;2023-08-12T04:27:41;100957.31;;;20.28;100.00
2178;BME280;1095;50.992;6.798;2023-08-12T04:30:21;100955.91;;;20.26;100.00
2178;BME280;1095;50.992;6.798;2023-08-12T04:38:47;100938.66;;;20.35;100.00
2178;BME280;1095;50.992;6.798;2023-08-12T04:41:22;100939.25;;;20.43;100.00
2178;BME280;1095;50.992;6.798;2023-08-12T04:43:59;100933.28;;;20.54;100.00
2178;BME280;1095;50.992;6.798;2023-08-12T04:46:31;100938.97;;;20.58;100.00
2178;BME280;1095;50.992;6.798;2023-08-12T04:48:58;100936.94;;;20.60;100.00
2178;BME280;1095;50.992;6.798;2023-08-12T04:51:38;100939.78;;;20.59;100.00
2178;BME280;1095;50.992;6.798;2023-08-12T04:54:16;100937.38;;;20.50;100.00
2178;BME280;1095;50.992;6.798;2023-08-12T04:56:53;100927.59;;;20.44;100.00
2178;BME280;1095;50.992;6.798;2023-08-12T04:59:38;100921.09;;;20.40;100.00
2178;BME280;1095;50.992;6.798;2023-08-12T05:02:14;100928.47;;;20.70;100.00
2178;BME280;1095;50.992;6.798;2023-08-12T05:04:49;100934.66;;;20.88;100.00
2178;BME280;1095;50.992;6.798;2023-08-12T05:10:26;100918.38;;;21.28;100.00
2178;BME280;1095;50.992;6.798;2023-08-12T05:13:08;100921.50;;;21.00;100.00
2178;BME280;1095;50.992;6.798;2023-08-12T05:15:37;100922.69;;;21.04;100.00
2178;BME280;1095;50.992;6.798;2023-08-12T05:18:08;100917.34;;;21.04;100.00
2178;BME280;1095;50.992;6.798;2023-08-12T05:20:39;100912.25;;;21.03;100.00
2178;BME280;1095;50.992;6.798;2023-08-12T05:23:06;100929.19;;;21.08;100.00
2178;BME280;1095;50.992;6.798;2023-08-12T05:25:33;100917.47;;;20.91;100.00
2178;BME280;1095;50.992;6.798;2023-08-12T05:28:05;100909.97;;;20.81;100.00
2178;BME280;1095;50.992;6.798;2023-08-12T05:30:33;100918.66;;;20.95;100.00
2178;BME280;1095;50.992;6.798;2023-08-12T05:33:00;100920.28;;;20.71;100.00
2178;BME280;1095;50.992;6.798;2023-08-12T05:35:26;100923.13;;;20.76;100.00
2178;BME280;1095;50.992;6.798;2023-08-12T05:37:53;100925.34;;;20.79;100.00
2178;BME280;1095;50.992;6.798;2023-08-12T05:40:19;100931.09;;;20.76;100.00
2178;BME280;1095;50.992;6.798;2023-08-12T05:42:46;100942.59;;;20.70;100.00
2178;BME280;1095;50.992;6.798;2023-08-12T05:45:12;100943.78;;;20.74;100.00
2178;BME280;1095;50.992;6.798;2023-08-12T05:47:40;100941.56;;;20.71;100.00
2178;BME280;1095;50.992;6.798;2023-08-12T05:50:06;100949.53;;;20.71;100.00
2178;BME280;1095;50.992;6.798;2023-08-12T05:52:33;100942.22;;;20.67;100.00
2178;BME280;1095;50.992;6.798;2023-08-12T05:54:59;100943.06;;;20.61;100.00
2178;BME280;1095;50.992;6.798;2023-08-12T05:57:26;100950.84;;;20.56;100.00
2178;BME280;1095;50.992;6.798;2023-08-12T05:59:52;100942.91;;;20.49;100.00
2178;BME280;1095;50.992;6.798;2023-08-12T06:02:18;100943.59;;;20.38;100.00
2178;BME280;1095;50.992;6.798;2023-08-12T06:04:46;100950.09;;;20.42;100.00
2178;BME280;1095;50.992;6.798;2023-08-12T06:07:13;100948.06;;;20.44;100.00
2178;BME280;1095;50.992;6.798;2023-08-12T06:09:39;100943.34;;;20.46;100.00
2178;BME280;1095;50.992;6.798;2023-08-12T06:12:06;100936.00;;;20.35;100.00
2178;BME280;1095;50.992;6.798;2023-08-12T06:14:32;100931.50;;;20.42;100.00
2178;BME280;1095;50.992;6.798;2023-08-12T06:16:59;100931.69;;;20.47;100.00
2178;BME280;1095;50.992;6.798;2023-08-12T06:19:25;100930.44;;;20.49;100.00
2178;BME280;1095;50.992;6.798;2023-08-12T06:21:53;100930.47;;;20.43;100.00
2178;BME280;1095;50.992;6.798;2023-08-12T06:24:19;100925.59;;;20.40;100.00
2178;BME280;1095;50.992;6.798;2023-08-12T06:26:46;100925.16;;;20.36;100.00
2178;BME280;1095;50.992;6.798;2023-08-12T06:29:12;100924.56;;;20.34;100.00
2178;BME280;1095;50.992;6.798;2023-08-12T06:31:38;100919.09;;;20.29;100.00
2178;BME280;1095;50.992;6.798;2023-08-12T06:34:05;100919.47;;;20.33;100.00
2178;BME280;1095;50.992;6.798;2023-08-12T06:36:31;100920.06;;;20.41;100.00
2178;BME280;1095;50.992;6.798;2023-08-12T06:38:59;100911.06;;;20.36;100.00
2178;BME280;1095;50.992;6.798;2023-08-12T06:41:25;100901.25;;;20.43;100.00
2178;BME280;1095;50.992;6.798;2023-08-12T06:43:52;100900.38;;;20.49;100.00
2178;BME280;1095;50.992;6.798;2023-08-12T06:46:18;100899.22;;;20.70;100.00
2178;BME280;1095;50.992;6.798;2023-08-12T06:48:45;100883.38;;;20.81;100.00
2178;BME280;1095;50.992;6.798;2023-08-12T06:51:11;100895.75;;;20.94;100.00
2178;BME280;1095;50.992;6.798;2023-08-12T06:53:37;100888.63;;;21.13;100.00
2178;BME280;1095;50.992;6.798;2023-08-12T06:56:05;100883.28;;;21.38;100.00
2178;BME280;1095;50.992;6.798;2023-08-12T06:58:32;100871.69;;;21.50;100.00
2178;BME280;1095;50.992;6.798;2023-08-12T07:00:58;100868.66;;;21.65;100.00
2178;BME280;1095;50.992;6.798;2023-08-12T07:03:25;100869.00;;;21.87;100.00
2178;BME280;1095;50.992;6.798;2023-08-12T07:05:54;100873.28;;;22.06;100.00
2178;BME280;1095;50.992;6.798;2023-08-12T07:08:20;100857.00;;;21.78;100.00
2178;BME280;1095;50.992;6.798;2023-08-12T07:10:47;100831.75;;;21.50;100.00
2178;BME280;1095;50.992;6.798;2023-08-12T07:13:15;100860.38;;;21.37;100.00
2178;BME280;1095;50.992;6.798;2023-08-12T07:15:41;100886.03;;;21.68;100.00
2178;BME280;1095;50.992;6.798;2023-08-12T07:18:08;100904.94;;;21.78;100.00
2178;BME280;1095;50.992;6.798;2023-08-12T07:20:35;100907.94;;;21.70;100.00
2178;BME280;1095;50.992;6.798;2023-08-12T07:23:01;100912.22;;;21.71;100.00
2178;BME280;1095;50.992;6.798;2023-08-12T07:25:28;100909.13;;;21.56;100.00
2178;BME280;1095;50.992;6.798;2023-08-12T07:27:57;100908.97;;;21.50;100.00
2178;BME280;1095;50.992;6.798;2023-08-12T07:30:28;100922.72;;;21.47;100.00
2178;BME280;1095;50.992;6.798;2023-08-12T07:32:55;100922.78;;;21.41;100.00
2178;BME280;1095;50.992;6.798;2023-08-12T07:35:23;100914.25;;;21.32;100.00
2178;BME280;1095;50.992;6.798;2023-08-12T07:37:55;100918.38;;;21.28;100.00
2178;BME280;1095;50.992;6.798;2023-08-12T07:40:30;100910.41;;;21.28;100.00
2178;BME280;1095;50.992;6.798;2023-08-12T07:42:57;100909.50;;;21.16;100.00
2178;BME280;1095;50.992;6.798;2023-08-12T07:45:24;100912.53;;;21.19;100.00
2178;BME280;1095;50.992;6.798;2023-08-12T07:47:51;100917.50;;;21.34;100.00
2178;BME280;1095;50.992;6.798;2023-08-12T07:50:19;100911.22;;;21.29;100.00
2178;BME280;1095;50.992;6.798;2023-08-12T07:52:45;100899.78;;;21.03;100.00
2178;BME280;1095;50.992;6.798;2023-08-12T07:55:12;100908.44;;;21.24;100.00
2178;BME280;1095;50.992;6.798;2023-08-12T07:57:38;100904.28;;;21.46;100.00
2178;BME280;1095;50.992;6.798;2023-08-12T08:00:05;100889.06;;;21.35;100.00
2178;BME280;1095;50.992;6.798;2023-08-12T08:02:33;100875.03;;;21.64;100.00
2178;BME280;1095;50.992;6.798;2023-08-12T08:05:01;100876.09;;;21.75;100.00
2178;BME280;1095;50.992;6.798;2023-08-12T08:07:27;100871.25;;;22.20;100.00
2178;BME280;1095;50.992;6.798;2023-08-12T08:09:54;100876.47;;;22.15;100.00
2178;BME280;1095;50.992;6.798;2023-08-12T08:12:20;100873.63;;;22.40;100.00
2178;BME280;1095;50.992;6.798;2023-08-12T08:14:47;100859.00;;;22.96;100.00
2178;BME280;1095;50.992;6.798;2023-08-12T08:17:13;100853.31;;;23.04;100.00
2178;BME280;1095;50.992;6.798;2023-08-12T08:19:40;100856.19;;;23.26;100.00
2178;BME280;1095;50.992;6.798;2023-08-12T08:22:07;100845.03;;;22.70;100.00
2178;BME280;1095;50.992;6.798;2023-08-12T08:24:34;100853.78;;;23.12;100.00
2178;BME280;1095;50.992;6.798;2023-08-12T08:27:00;100857.03;;;23.03;100.00
2178;BME280;1095;50.992;6.798;2023-08-12T08:29:29;100865.97;;;22.85;100.00
2178;BME280;1095;50.992;6.798;2023-08-12T08:31:56;100875.53;;;22.74;100.00
2178;BME280;1095;50.992;6.798;2023-08-12T08:34:22;100880.28;;;22.61;100.00
2178;BME280;1095;50.992;6.798;2023-08-12T08:36:49;100889.16;;;22.43;100.00
2178;BME280;1095;50.992;6.798;2023-08-12T08:39:17;100895.91;;;22.45;100.00
2178;BME280;1095;50.992;6.798;2023-08-12T08:41:44;100884.47;;;22.27;100.00
2178;BME280;1095;50.992;6.798;2023-08-12T08:44:13;100889.81;;;22.27;100.00
2178;BME280;1095;50.992;6.798;2023-08-12T08:46:41;100891.44;;;22.28;100.00
2178;BME280;1095;50.992;6.798;2023-08-12T08:49:30;100885.47;;;22.44;100.00
2178;BME280;1095;50.992;6.798;2023-08-12T08:52:00;100881.09;;;22.61;100.00
2178;BME280;1095;50.992;6.798;2023-08-12T08:57:27;100859.25;;;22.94;100.00
2178;BME280;1095;50.992;6.798;2023-08-12T08:59:57;100876.72;;;23.37;100.00
2178;BME280;1095;50.992;6.798;2023-08-12T09:02:23;100880.13;;;23.84;100.00
2178;BME280;1095;50.992;6.798;2023-08-12T09:04:51;100872.22;;;24.17;100.00
2178;BME280;1095;50.992;6.798;2023-08-12T09:07:19;100867.69;;;24.63;100.00
2178;BME280;1095;50.992;6.798;2023-08-12T09:09:46;100879.06;;;25.04;100.00
2178;BME280;1095;50.992;6.798;2023-08-12T09:12:15;100884.16;;;24.89;100.00
2178;BME280;1095;50.992;6.798;2023-08-12T09:14:43;100878.25;;;25.03;99.36
2178;BME280;1095;50.992;6.798;2023-08-12T09:17:10;100875.59;;;25.25;98.07
2178;BME280;1095;50.992;6.798;2023-08-12T09:19:36;100876.59;;;25.19;97.59
2178;BME280;1095;50.992;6.798;2023-08-12T09:22:03;100876.06;;;25.39;97.13
2178;BME280;1095;50.992;6.798;2023-08-12T09:24:34;100868.28;;;25.37;96.28
2178;BME280;1095;50.992;6.798;2023-08-12T09:27:16;100867.84;;;25.67;95.92
2178;BME280;1095;50.992;6.798;2023-08-12T09:29:47;100866.44;;;25.82;94.85
2178;BME280;1095;50.992;6.798;2023-08-12T09:32:17;100848.47;;;25.82;93.42
2178;BME280;1095;50.992;6.798;2023-08-12T09:34:49;100849.16;;;25.72;92.26
2178;BME280;1095;50.992;6.798;2023-08-12T09:37:17;100842.19;;;25.71;91.82
2178;BME280;1095;50.992;6.798;2023-08-12T09:39:44;100851.72;;;25.84;91.49
2178;BME280;1095;50.992;6.798;2023-08-12T09:42:14;100852.41;;;26.28;92.29
2178;BME280;1095;50.992;6.798;2023-08-12T09:44:41;100851.28;;;26.51;90.67
2178;BME280;1095;50.992;6.798;2023-08-12T09:47:14;100843.88;;;26.63;89.29
2178;BME280;1095;50.992;6.798;2023-08-12T09:49:44;100848.22;;;26.69;88.88
2178;BME280;1095;50.992;6.798;2023-08-12T09:52:19;100848.19;;;26.32;89.31
2178;BME280;1095;50.992;6.798;2023-08-12T09:54:52;100846.72;;;26.52;89.54
2178;BME280;1095;50.992;6.798;2023-08-12T09:57:33;100843.25;;;26.24;89.35
2178;BME280;1095;50.992;6.798;2023-08-12T10:00:07;100836.88;;;26.03;89.29
2178;BME280;1095;50.992;6.798;2023-08-12T10:02:45;100835.28;;;25.59;90.15
2178;BME280;1095;50.992;6.798;2023-08-12T10:05:18;100843.09;;;25.38;91.19
2178;BME280;1095;50.992;6.798;2023-08-12T10:08:17;100847.97;;;25.41;92.31
2178;BME280;1095;50.992;6.798;2023-08-12T10:10:44;100841.19;;;25.17;92.43
2178;BME280;1095;50.992;6.798;2023-08-12T10:13:33;100856.84;;;25.03;95.09
2178;BME280;1095;50.992;6.798;2023-08-12T10:16:17;100855.59;;;24.77;96.44
2178;BME280;1095;50.992;6.798;2023-08-12T10:18:45;100850.66;;;24.36;97.29
2178;BME280;1095;50.992;6.798;2023-08-12T10:21:24;100846.25;;;24.30;97.35
2178;BME280;1095;50.992;6.798;2023-08-12T10:26:20;100840.81;;;23.96;98.67
2178;BME280;1095;50.992;6.798;2023-08-12T10:29:12;100842.41;;;23.80;99.49
2178;BME280;1095;50.992;6.798;2023-08-12T10:31:55;100840.91;;;23.73;99.55
2178;BME280;1095;50.992;6.798;2023-08-12T10:34:52;100831.47;;;23.82;99.87
2178;BME280;1095;50.992;6.798;2023-08-12T10:40:42;100827.66;;;24.52;97.51
2178;BME280;1095;50.992;6.798;2023-08-12T10:43:08;100828.22;;;24.54;96.80
2178;BME280;1095;50.992;6.798;2023-08-12T10:45:42;100830.38;;;24.40;97.98
2178;BME280;1095;50.992;6.798;2023-08-12T10:48:10;100822.69;;;24.43;98.59
2178;BME280;1095;50.992;6.798;2023-08-12T10:50:44;100825.81;;;24.24;98.17
2178;BME280;1095;50.992;6.798;2023-08-12T10:53:24;100828.28;;;24.13;98.41
2178;BME280;1095;50.992;6.798;2023-08-12T10:55:54;100816.88;;;24.01;99.11
2178;BME280;1095;50.992;6.798;2023-08-12T10:58:24;100822.25;;;23.90;98.86
2178;BME280;1095;50.992;6.798;2023-08-12T11:00:55;100825.06;;;23.83;100.00
2178;BME280;1095;50.992;6.798;2023-08-12T11:03:22;100837.72;;;23.59;100.00
2178;BME280;1095;50.992;6.798;2023-08-12T11:05:49;100830.28;;;23.61;100.00
2178;BME280;1095;50.992;6.798;2023-08-12T11:08:23;100833.09;;;23.55;100.00
2178;BME280;1095;50.992;6.798;2023-08-12T11:10:50;100828.41;;;23.62;100.00
2178;BME280;1095;50.992;6.798;2023-08-12T11:13:20;100822.78;;;23.75;100.00
2178;BME280;1095;50.992;6.798;2023-08-12T11:15:49;100820.78;;;23.82;100.00
2178;BME280;1095;50.992;6.798;2023-08-12T11:18:19;100831.84;;;23.74;100.00
2178;BME280;1095;50.992;6.798;2023-08-12T11:20:46;100827.53;;;23.73;100.00
2178;BME280;1095;50.992;6.798;2023-08-12T11:25:47;100814.31;;;23.66;100.00
2178;BME280;1095;50.992;6.798;2023-08-12T11:28:18;100827.38;;;23.91;100.00
2178;BME280;1095;50.992;6.798;2023-08-12T11:30:45;100821.06;;;23.97;100.00
2178;BME280;1095;50.992;6.798;2023-08-12T11:33:12;100812.72;;;24.10;100.00
2178;BME280;1095;50.992;6.798;2023-08-12T11:35:39;100806.66;;;23.98;100.00
2178;BME280;1095;50.992;6.798;2023-08-12T11:38:14;100789.56;;;23.71;100.00
2178;BME280;1095;50.992;6.798;2023-08-12T11:40:45;100805.31;;;23.84;100.00
2178;BME280;1095;50.992;6.798;2023-08-12T11:43:21;100776.81;;;24.35;100.00
2178;BME280;1095;50.992;6.798;2023-08-12T11:45:48;100773.84;;;24.87;97.76
2178;BME280;1095;50.992;6.798;2023-08-12T11:48:14;100784.66;;;25.35;96.49
2178;BME280;1095;50.992;6.798;2023-08-12T11:50:41;100773.97;;;25.35;94.83
2178;BME280;1095;50.992;6.798;2023-08-12T11:53:08;100781.34;;;25.06;94.52
2178;BME280;1095;50.992;6.798;2023-08-12T11:55:34;100784.94;;;24.95;94.34
2178;BME280;1095;50.992;6.798;2023-08-12T11:58:03;100779.59;;;24.78;94.23
2178;BME280;1095;50.992;6.798;2023-08-12T12:00:31;100782.88;;;24.64;93.70
2178;BME280;1095;50.992;6.798;2023-08-12T12:03:00;100763.31;;;24.97;92.44
2178;BME280;1095;50.992;6.798;2023-08-12T12:05:28;100763.53;;;24.95;90.74
2178;BME280;1095;50.992;6.798;2023-08-12T12:07:55;100758.13;;;25.12;91.02
2178;BME280;1095;50.992;6.798;2023-08-12T12:10:27;100755.06;;;25.47;91.13
2178;BME280;1095;50.992;6.798;2023-08-12T12:12:55;100757.13;;;25.18;88.93
2178;BME280;1095;50.992;6.798;2023-08-12T12:15:27;100750.03;;;25.29;89.60
2178;BME280;1095;50.992;6.798;2023-08-12T12:18:09;100764.13;;;25.41;90.75
2178;BME280;1095;50.992;6.798;2023-08-12T12:20:36;100761.78;;;26.03;89.56
2178;BME280;1095;50.992;6.798;2023-08-12T12:23:06;100759.81;;;26.21;88.70
2178;BME280;1095;50.992;6.798;2023-08-12T12:25:33;100748.09;;;26.00;86.68
2178;BME280;1095;50.992;6.798;2023-08-12T12:28:02;100743.41;;;26.17;86.05
2178;BME280;1095;50.992;6.798;2023-08-12T12:30:38;100749.03;;;25.62;86.55
2178;BME280;1095;50.992;6.798;2023-08-12T12:33:10;100758.44;;;25.86;85.74
2178;BME280;1095;50.992;6.798;2023-08-12T12:35:47;100763.66;;;25.71;87.06
2178;BME280;1095;50.992;6.798;2023-08-12T12:41:35;100783.69;;;25.41;92.55
2178;BME280;1095;50.992;6.798;2023-08-12T13:11:40;100853.72;;;22.54;100.00
2178;BME280;1095;50.992;6.798;2023-08-12T13:18:44;100882.88;;;22.79;100.00
2178;BME280;1095;50.992;6.798;2023-08-12T13:21:55;100882.09;;;22.90;100.00
2178;BME280;1095;50.992;6.798;2023-08-12T13:25:36;100864.50;;;22.71;100.00
2178;BME280;1095;50.992;6.798;2023-08-12T13:39:21;100860.72;;;23.60;100.00
2178;BME280;1095;50.992;6.798;2023-08-12T13:42:01;100870.00;;;23.34;100.00
2178;BME280;1095;50.992;6.798;2023-08-12T13:44:40;100857.25;;;23.88;100.00
2178;BME280;1095;50.992;6.798;2023-08-12T13:47:09;100860.63;;;24.40;100.00
2178;BME280;1095;50.992;6.798;2023-08-12T13:49:44;100863.72;;;24.21;100.00
2178;BME280;1095;50.992;6.798;2023-08-12T13:52:26;100861.09;;;24.37;99.64
2178;BME280;1095;50.992;6.798;2023-08-12T13:55:13;100828.06;;;24.15;99.01
2178;BME280;1095;50.992;6.798;2023-08-12T13:57:43;100839.47;;;23.82;99.10
2178;BME280;1095;50.992;6.798;2023-08-12T14:00:12;100861.97;;;24.26;99.50
2178;BME280;1095;50.992;6.798;2023-08-12T14:02:45;100838.00;;;24.31;96.84
2178;BME280;1095;50.992;6.798;2023-08-12T14:05:19;100832.66;;;24.48;94.80
2178;BME280;1095;50.992;6.798;2023-08-12T14:07:50;100832.97;;;24.35;92.91
2178;BME280;1095;50.992;6.798;2023-08-12T14:10:22;100833.53;;;23.92;92.75
2178;BME280;1095;50.992;6.798;2023-08-12T14:13:02;100848.28;;;23.94;93.59
2178;BME280;1095;50.992;6.798;2023-08-12T14:16:10;100823.31;;;23.89;92.75
2178;BME280;1095;50.992;6.798;2023-08-12T14:18:47;100825.84;;;24.12;91.88
2178;BME280;1095;50.992;6.798;2023-08-12T14:21:33;100839.47;;;24.39;90.34
2178;BME280;1095;50.992;6.798;2023-08-12T14:24:14;100841.72;;;24.30;88.66
2178;BME280;1095;50.992;6.798;2023-08-12T14:27:05;100854.84;;;24.32;88.85
2178;BME280;1095;50.992;6.798;2023-08-12T14:29:45;100842.94;;;24.11;87.38
2178;BME280;1095;50.992;6.798;2023-08-12T14:32:13;100846.84;;;24.03;87.05
2178;BME280;1095;50.992;6.798;2023-08-12T14:34:41;100842.91;;;24.23;85.63
2178;BME280;1095;50.992;6.798;2023-08-12T14:37:10;100835.84;;;24.16;85.41
2178;BME280;1095;50.992;6.798;2023-08-12T14:39:37;100842.81;;;24.17;85.81
2178;BME280;1095;50.992;6.798;2023-08-12T14:42:05;100841.41;;;24.27;86.48
2178;BME280;1095;50.992;6.798;2023-08-12T14:44:33;100833.69;;;24.30;85.64
2178;BME280;1095;50.992;6.798;2023-08-12T14:47:00;100826.84;;;24.51;85.56
2178;BME280;1095;50.992;6.798;2023-08-12T14:49:29;100821.25;;;24.24;82.91
2178;BME280;1095;50.992;6.798;2023-08-12T14:51:55;100833.25;;;24.22;82.77
2178;BME280;1095;50.992;6.798;2023-08-12T14:54:22;100837.94;;;24.14;83.26
2178;BME280;1095;50.992;6.798;2023-08-12T14:56:49;100823.72;;;24.26;82.72
2178;BME280;1095;50.992;6.798;2023-08-12T14:59:18;100827.97;;;24.38;82.79
2178;BME280;1095;50.992;6.798;2023-08-12T15:01:45;100829.53;;;24.23;81.94
2178;BME280;1095;50.992;6.798;2023-08-12T15:04:12;100827.06;;;24.33;82.58
2178;BME280;1095;50.992;6.798;2023-08-12T15:06:38;100814.03;;;24.36;82.06
2178;BME280;1095;50.992;6.798;2023-08-12T15:09:05;100814.03;;;24.36;82.12
2178;BME280;1095;50.992;6.798;2023-08-12T15:11:32;100822.78;;;24.48;83.19
2178;BME280;1095;50.992;6.798;2023-08-12T15:13:58;100808.50;;;24.60;81.04